Time;durP1;ratioP1;P1;durP2;ratioP2;P2;SDS_P1;SDS_P2;PMS_P1;PMS_P2;Temp;Humidity;BMP_temperature;BMP_pressure;BME280_temperature;BME280_humidity;BME280_pressure;Samples;Min_cycle;Max_cycle;Signal;HPM_P1;HPM_P2
2022/03/01 00:02:14;;;;;;;7.35;5.20;;;;;;;20.31;34.04;102907.91;5055881;28;20507;-69
2022/03/01 00:04:39;;;;;;;6.25;4.70;;;;;;;20.27;34.34;102896.72;5052987;28;20037;-68
2022/03/01 00:07:07;;;;;;;6.68;5.28;;;;;;;20.27;34.12;102903.81;5056835;28;20506;-68
2022/03/01 00:09:33;;;;;;;6.63;5.18;;;;;;;20.22;34.06;102894.47;5054020;28;20546;-68
2022/03/01 00:11:58;;;;;;;7.15;5.22;;;;;;;20.22;34.21;102899.78;5053977;28;20103;-68
2022/03/01 00:14:24;;;;;;;6.88;5.18;;;;;;;20.22;34.14;102893.63;5054864;28;20547;-68
2022/03/01 00:16:50;;;;;;;6.43;5.03;;;;;;;20.19;34.10;102893.91;5055433;28;20920;-68
2022/03/01 00:19:15;;;;;;;7.43;5.07;;;;;;;20.17;34.12;102886.09;5056331;28;20397;-69
2022/03/01 00:21:41;;;;;;;6.80;5.10;;;;;;;20.19;34.06;102896.56;5047933;28;20045;-68
2022/03/01 00:24:06;;;;;;;7.30;5.28;;;;;;;20.17;34.16;102901.16;5057314;28;20040;-68
2022/03/01 00:26:32;;;;;;;8.63;5.43;;;;;;;20.11;34.08;102891.09;5060050;28;20040;-68
2022/03/01 00:28:57;;;;;;;7.68;5.68;;;;;;;20.09;34.27;102883.28;5054394;28;20479;-68
2022/03/01 00:31:23;;;;;;;6.40;5.07;;;;;;;20.10;34.19;102890.22;5060921;28;20036;-69
2022/03/01 00:33:48;;;;;;;6.68;4.85;;;;;;;20.09;34.27;102893.84;5057107;28;20041;-68
2022/03/01 00:36:14;;;;;;;7.70;5.30;;;;;;;20.08;34.18;102897.47;5061454;28;20028;-69
2022/03/01 00:38:39;;;;;;;5.70;4.72;;;;;;;20.03;34.18;102897.03;5055688;28;20286;-68
2022/03/01 00:41:05;;;;;;;5.97;4.93;;;;;;;20.02;34.17;102899.81;5057954;28;20569;-69
2022/03/01 00:43:30;;;;;;;6.78;5.40;;;;;;;20.01;34.23;102906.06;5058854;28;20143;-68
2022/03/01 00:45:56;;;;;;;7.40;5.38;;;;;;;19.99;34.34;102897.44;5056590;28;20494;-68
2022/03/01 00:48:22;;;;;;;6.47;5.03;;;;;;;20.01;34.24;102900.78;5061422;28;20067;-68
2022/03/01 00:50:48;;;;;;;6.38;4.65;;;;;;;19.98;34.31;102901.88;5055839;28;20068;-68
2022/03/01 00:53:14;;;;;;;7.82;4.97;;;;;;;19.96;34.21;102895.88;5060745;28;20040;-69
2022/03/01 00:55:40;;;;;;;6.85;5.32;;;;;;;19.95;34.29;102904.78;5061014;28;20055;-69
2022/03/01 00:58:06;;;;;;;6.93;4.85;;;;;;;19.81;34.24;102874.22;5057394;28;20041;-69
2022/03/01 01:00:33;;;;;;;8.13;5.47;;;;;;;19.94;34.26;102897.84;5059261;28;20036;-68
2022/03/01 01:02:59;;;;;;;6.15;4.88;;;;;;;19.94;34.15;102899.63;5056299;28;20501;-68
2022/03/01 01:05:24;;;;;;;6.20;4.47;;;;;;;19.91;34.18;102900.72;5059049;28;20032;-68
2022/03/01 01:07:51;;;;;;;6.50;5.03;;;;;;;19.87;34.25;102905.44;5055230;28;20548;-69
2022/03/01 01:10:17;;;;;;;6.80;4.80;;;;;;;19.87;34.28;102904.59;5057983;28;20078;-69
2022/03/01 01:12:43;;;;;;;8.75;5.43;;;;;;;19.86;34.34;102903.75;5052749;28;20497;-68
2022/03/01 01:15:10;;;;;;;7.50;5.63;;;;;;;19.84;34.26;102903.03;5059550;28;20052;-68
2022/03/01 01:17:36;;;;;;;6.95;5.13;;;;;;;19.82;34.46;102909.44;5058215;28;21211;-69
2022/03/01 01:20:04;;;;;;;7.60;5.10;;;;;;;19.83;34.34;102892.59;5053788;28;20037;-68
2022/03/01 01:22:39;;;;;;;6.20;5.00;;;;;;;19.82;34.23;102890.94;5053714;28;20051;-68
2022/03/01 01:25:13;;;;;;;7.47;5.15;;;;;;;19.77;34.34;102895.78;5053308;28;20036;-68
2022/03/01 01:27:41;;;;;;;6.20;5.10;;;;;;;19.78;34.44;102889.53;5051877;28;20051;-68
2022/03/01 01:30:13;;;;;;;7.18;5.15;;;;;;;19.76;34.37;102891.47;5054660;28;20036;-68
2022/03/01 01:32:39;;;;;;;7.47;5.10;;;;;;;19.75;34.24;102889.75;5058705;28;20032;-68
2022/03/01 01:35:06;;;;;;;7.72;5.25;;;;;;;19.73;34.36;102881.13;5059936;28;20107;-68
2022/03/01 01:37:32;;;;;;;7.47;5.50;;;;;;;19.72;34.30;102888.22;5058870;28;20036;-68
2022/03/01 01:39:58;;;;;;;6.00;4.55;;;;;;;19.72;34.29;102877.63;5058295;28;20047;-68
2022/03/01 01:42:23;;;;;;;6.93;4.97;;;;;;;19.72;34.31;102884.72;5057211;28;20052;-68
2022/03/01 01:44:49;;;;;;;7.13;5.05;;;;;;;19.67;34.35;102892.22;5059355;28;20282;-68
2022/03/01 01:47:14;;;;;;;7.15;5.35;;;;;;;19.65;34.28;102894.16;5056524;28;20047;-69
2022/03/01 01:49:40;;;;;;;7.03;4.75;;;;;;;19.65;34.45;102900.28;5058930;28;20043;-69
2022/03/01 01:52:06;;;;;;;6.60;4.90;;;;;;;19.61;34.46;102896.22;5054479;28;20064;-68
2022/03/01 01:54:32;;;;;;;6.00;4.70;;;;;;;19.64;34.33;102900.41;5057696;28;20058;-69
2022/03/01 01:56:57;;;;;;;7.35;5.00;;;;;;;19.59;34.60;102891.06;5058683;28;20024;-68
2022/03/01 01:59:23;;;;;;;6.20;4.85;;;;;;;19.60;34.31;102890.09;5054357;28;20040;-68
2022/03/01 02:01:49;;;;;;;7.35;5.22;;;;;;;19.57;34.24;102890.34;5053728;28;20051;-68
2022/03/01 02:04:14;;;;;;;7.20;5.05;;;;;;;19.60;34.33;102894.53;5056421;28;20047;-68
2022/03/01 02:06:53;;;;;;;6.53;5.20;;;;;;;19.56;34.37;102880.72;5057578;28;20048;-69
2022/03/01 02:09:20;;;;;;;6.05;4.97;;;;;;;19.53;34.30;102874.84;5050592;28;20043;-68
2022/03/01 02:11:46;;;;;;;7.43;5.38;;;;;;;19.55;34.46;102886.97;5056834;28;20093;-68
2022/03/01 02:14:11;;;;;;;8.07;5.00;;;;;;;19.55;34.23;102891.44;5053573;28;20032;-68
2022/03/01 02:16:37;;;;;;;6.72;5.40;;;;;;;19.55;34.29;102886.97;5056741;28;20822;-69
2022/03/01 02:19:11;;;;;;;6.25;4.85;;;;;;;19.50;34.43;102883.84;5059182;28;20044;-68
2022/03/01 02:21:48;;;;;;;7.55;5.15;;;;;;;19.45;34.51;102879.94;5055217;28;20049;-69
2022/03/01 02:24:18;;;;;;;7.25;4.82;;;;;;;19.48;34.37;102893.72;5056957;28;20054;-68
2022/03/01 02:26:44;;;;;;;7.35;5.18;;;;;;;19.47;34.43;102881.47;5053188;28;20075;-68
2022/03/01 02:29:10;;;;;;;7.10;5.50;;;;;;;19.46;34.55;102889.53;5057893;28;20025;-68
2022/03/01 02:31:37;;;;;;;6.70;5.13;;;;;;;19.46;34.35;102881.59;5052016;28;20044;-69
2022/03/01 02:34:03;;;;;;;7.10;5.25;;;;;;;19.47;34.41;102891.22;5056573;28;20044;-69
2022/03/01 02:36:28;;;;;;;6.72;4.93;;;;;;;19.45;34.44;102880.78;5056101;28;20269;-68
2022/03/01 02:38:54;;;;;;;6.55;4.43;;;;;;;19.35;34.29;102871.09;5038380;28;20413;-68
2022/03/01 02:41:19;;;;;;;5.68;4.68;;;;;;;19.41;34.45;102878.53;5050748;28;20406;-68
2022/03/01 02:43:45;;;;;;;6.60;4.85;;;;;;;19.39;34.37;102880.41;5053966;28;20068;-69
2022/03/01 02:46:11;;;;;;;6.57;5.22;;;;;;;19.38;34.59;102876.09;5055270;28;20032;-68
2022/03/01 02:48:36;;;;;;;6.45;4.95;;;;;;;19.36;34.51;102868.31;5054821;28;20079;-68
2022/03/01 02:51:02;;;;;;;6.78;5.03;;;;;;;19.37;34.56;102869.16;5056033;28;20482;-68
2022/03/01 02:53:28;;;;;;;7.03;4.85;;;;;;;19.36;34.47;102878.88;5058244;28;20044;-69
2022/03/01 02:55:54;;;;;;;6.95;4.60;;;;;;;19.30;34.61;102874.09;5055293;28;20044;-68
2022/03/01 02:58:19;;;;;;;7.10;5.15;;;;;;;19.30;34.66;102879.41;5055654;28;20452;-68
2022/03/01 03:00:45;;;;;;;7.22;4.88;;;;;;;19.30;34.59;102877.59;5052801;28;20119;-69
2022/03/01 03:03:12;;;;;;;6.50;4.70;;;;;;;19.31;34.47;102881.91;5057468;28;20486;-69
2022/03/01 03:05:38;;;;;;;7.05;4.68;;;;;;;19.26;34.60;102870.06;5055185;28;20165;-68
2022/03/01 03:08:04;;;;;;;6.55;4.78;;;;;;;19.30;34.59;102872.31;5058572;28;20044;-68
2022/03/01 03:10:29;;;;;;;6.70;4.97;;;;;;;19.29;34.63;102873.28;5054632;28;20041;-68
2022/03/01 03:12:55;;;;;;;5.70;4.70;;;;;;;19.28;34.58;102868.13;5053349;28;20051;-69
2022/03/01 03:15:21;;;;;;;6.28;4.68;;;;;;;19.23;34.57;102862.38;5055547;28;20490;-68
2022/03/01 03:17:46;;;;;;;6.53;5.10;;;;;;;19.22;34.51;102863.34;5053409;28;20111;-68
2022/03/01 03:20:12;;;;;;;6.57;5.00;;;;;;;19.23;34.64;102868.50;5057429;28;20037;-68
2022/03/01 03:22:37;;;;;;;8.10;4.93;;;;;;;19.22;34.40;102866.84;5055366;28;20033;-68
2022/03/01 03:25:03;;;;;;;7.30;5.10;;;;;;;19.21;34.63;102861.66;5058015;28;20044;-68
2022/03/01 03:27:29;;;;;;;6.35;5.00;;;;;;;19.20;34.67;102873.19;5051310;28;20040;-68
2022/03/01 03:29:54;;;;;;;8.18;5.10;;;;;;;19.17;34.58;102863.72;5056419;28;20053;-68
2022/03/01 03:32:20;;;;;;;6.80;5.25;;;;;;;19.20;34.63;102862.63;5056605;28;20052;-68
2022/03/01 03:34:46;;;;;;;7.05;5.38;;;;;;;19.20;34.55;102865.25;5054676;28;20060;-68
2022/03/01 03:37:11;;;;;;;6.80;5.10;;;;;;;19.16;34.61;102858.56;5061198;28;20453;-69
2022/03/01 03:39:37;;;;;;;6.88;5.15;;;;;;;19.14;34.47;102853.41;5052975;28;20521;-68
2022/03/01 03:42:02;;;;;;;6.28;4.80;;;;;;;19.15;34.61;102860.34;5051868;28;20029;-69
2022/03/01 03:44:28;;;;;;;6.13;4.38;;;;;;;19.10;34.69;102853.78;5053475;28;20650;-69
2022/03/01 03:46:53;;;;;;;6.05;5.05;;;;;;;19.05;34.79;102848.88;5056063;28;20036;-68
2022/03/01 03:49:19;;;;;;;6.90;4.85;;;;;;;19.09;34.59;102849.47;5046993;28;20128;-68
2022/03/01 03:51:46;;;;;;;6.60;4.72;;;;;;;19.04;34.72;102851.66;5050229;28;20043;-68
2022/03/01 03:54:11;;;;;;;6.60;4.55;;;;;;;19.00;34.67;102849.25;5054180;28;20036;-68
2022/03/01 03:56:37;;;;;;;6.28;4.78;;;;;;;19.03;34.69;102848.19;5052919;28;20062;-69
2022/03/01 03:59:02;;;;;;;6.60;4.90;;;;;;;19.02;34.82;102857.88;5058742;28;20037;-68
2022/03/01 04:01:28;;;;;;;6.30;5.15;;;;;;;18.95;34.78;102837.38;5054929;28;20571;-69
2022/03/01 04:03:54;;;;;;;8.27;5.00;;;;;;;19.02;34.59;102849.13;5057448;28;20037;-67
2022/03/01 04:06:19;;;;;;;7.40;5.10;;;;;;;18.90;34.67;102823.75;5057564;28;20616;-68
2022/03/01 04:08:45;;;;;;;5.80;4.47;;;;;;;18.96;34.79;102853.09;5057422;28;20044;-67
2022/03/01 04:11:11;;;;;;;7.10;5.15;;;;;;;19.01;34.75;102853.56;5060935;28;20052;-67
2022/03/01 04:13:36;;;;;;;7.07;4.97;;;;;;;19.01;34.55;102855.38;5057627;28;20399;-67
2022/03/01 04:16:03;;;;;;;6.20;4.63;;;;;;;18.99;34.74;102844.94;5060773;28;20522;-67
2022/03/01 04:18:29;;;;;;;6.90;4.95;;;;;;;18.99;34.76;102846.72;5056045;28;20029;-67
2022/03/01 04:20:55;;;;;;;6.78;5.05;;;;;;;18.95;34.69;102847.94;5059580;28;20109;-67
2022/03/01 04:23:21;;;;;;;7.03;5.03;;;;;;;18.96;34.75;102844.34;5062034;28;20094;-67
2022/03/01 04:25:46;;;;;;;7.63;5.07;;;;;;;18.95;34.77;102847.94;5057273;28;20055;-67
2022/03/01 04:28:12;;;;;;;6.50;5.15;;;;;;;18.93;34.73;102844.59;5059240;28;20044;-67
2022/03/01 04:30:37;;;;;;;7.57;5.38;;;;;;;18.95;34.65;102850.59;5054643;28;20048;-67
2022/03/01 04:33:03;;;;;;;6.82;4.97;;;;;;;18.94;34.62;102847.13;5060174;28;20040;-67
2022/03/01 04:35:28;;;;;;;8.05;5.32;;;;;;;18.95;34.67;102845.31;5057795;28;20044;-67
2022/03/01 04:37:54;;;;;;;6.28;4.80;;;;;;;18.85;34.79;102828.53;5059842;28;20025;-67
2022/03/01 04:40:20;;;;;;;6.88;4.97;;;;;;;18.85;34.70;102839.97;5057809;28;20033;-67
2022/03/01 04:42:45;;;;;;;6.50;4.95;;;;;;;18.90;34.67;102840.41;5056136;28;20044;-67
2022/03/01 04:45:12;;;;;;;6.60;4.55;;;;;;;18.82;34.74;102837.53;5059950;28;20385;-67
2022/03/01 04:47:38;;;;;;;6.25;5.03;;;;;;;18.88;34.74;102838.88;5057440;28;20094;-67
2022/03/01 04:50:05;;;;;;;7.13;4.95;;;;;;;18.88;34.68;102838.88;5058781;28;20043;-67
2022/03/01 04:52:30;;;;;;;6.15;4.97;;;;;;;18.88;34.59;102836.22;5058830;28;20059;-67
2022/03/01 04:54:56;;;;;;;5.68;4.85;;;;;;;18.82;34.77;102832.25;5059184;28;20041;-67
2022/03/01 04:57:21;;;;;;;6.05;4.55;;;;;;;18.86;34.80;102830.25;5057702;28;20538;-67
2022/03/01 04:59:47;;;;;;;6.63;4.90;;;;;;;18.82;34.70;102834.91;5056280;28;20048;-67
2022/03/01 05:02:12;;;;;;;6.50;4.90;;;;;;;18.84;34.83;102832.13;5059398;28;20036;-67
2022/03/01 05:04:38;;;;;;;7.55;5.05;;;;;;;18.80;34.70;102831.56;5058929;28;21155;-67
2022/03/01 05:07:03;;;;;;;6.82;5.00;;;;;;;18.81;34.70;102827.09;5059041;28;20509;-67
2022/03/01 05:09:29;;;;;;;7.18;5.00;;;;;;;18.80;34.73;102826.28;5054023;28;20040;-67
2022/03/01 05:11:54;;;;;;;5.78;4.80;;;;;;;18.86;34.89;102831.06;5061000;28;20122;-67
2022/03/01 05:14:20;;;;;;;6.22;4.63;;;;;;;18.97;34.69;102827.53;5056509;28;20040;-67
2022/03/01 05:16:46;;;;;;;6.88;4.63;;;;;;;19.57;33.79;102836.66;5057733;28;20077;-67
2022/03/01 05:19:13;;;;;;;5.75;4.88;;;;;;;20.28;32.97;102829.59;5059269;28;20549;-67
2022/03/01 05:21:39;;;;;;;5.93;4.88;;;;;;;20.94;31.91;102826.44;5057010;28;20055;-67
2022/03/01 05:24:05;;;;;;;6.32;4.72;;;;;;;21.41;31.41;102822.94;5057342;28;20040;-67
2022/03/01 05:26:31;;;;;;;5.97;4.72;;;;;;;21.68;30.99;102826.66;5050467;28;20032;-67
2022/03/01 05:28:58;;;;;;;6.20;4.40;;;;;;;21.95;30.86;102829.38;5041109;28;20066;-67
2022/03/01 05:31:24;;;;;;;6.97;4.80;;;;;;;22.05;30.58;102820.53;5053705;28;20048;-67
2022/03/01 05:37:49;;;;;;;6.15;4.72;;;;;;;22.35;30.48;102816.78;5039626;28;20838;-67
2022/03/01 05:40:16;;;;;;;6.90;4.95;;;;;;;22.23;30.54;102818.78;5048307;28;20602;-67
2022/03/01 05:42:42;;;;;;;6.10;4.45;;;;;;;22.01;30.78;102819.97;5039958;28;20495;-67
2022/03/01 05:45:08;;;;;;;5.05;4.18;;;;;;;21.76;31.08;102821.47;5049775;28;20032;-67
2022/03/01 05:47:33;;;;;;;6.45;4.85;;;;;;;21.60;31.60;102831.84;5052819;28;20028;-67
2022/03/01 05:49:59;;;;;;;5.60;4.60;;;;;;;21.83;31.43;102832.34;5055505;28;20040;-67
2022/03/01 05:52:25;;;;;;;6.40;4.60;;;;;;;22.09;31.12;102830.75;5051521;28;20189;-67
2022/03/01 05:54:50;;;;;;;7.05;4.80;;;;;;;22.38;30.68;102827.09;5054746;28;20046;-68
2022/03/01 05:57:16;;;;;;;6.55;4.90;;;;;;;22.52;30.12;102816.81;5042054;28;20032;-67
2022/03/01 05:59:42;;;;;;;5.68;4.15;;;;;;;22.75;29.92;102825.16;5053239;28;20040;-67
2022/03/01 06:02:08;;;;;;;6.75;4.13;;;;;;;22.87;30.02;102818.69;5050942;28;21367;-68
2022/03/01 06:04:33;;;;;;;6.63;4.68;;;;;;;22.86;30.04;102829.47;5049089;28;20033;-68
2022/03/01 06:06:59;;;;;;;6.22;4.80;;;;;;;22.61;30.09;102823.03;5049701;28;20044;-67
2022/03/01 06:09:24;;;;;;;5.75;4.30;;;;;;;22.44;30.79;102827.34;5046118;28;20087;-68
2022/03/01 06:11:50;;;;;;;6.13;4.53;;;;;;;22.25;30.81;102835.38;5051459;28;20174;-67
2022/03/01 06:14:16;;;;;;;6.93;4.28;;;;;;;22.03;31.47;102839.22;5053128;28;20518;-68
2022/03/01 06:16:44;;;;;;;6.72;4.80;;;;;;;21.81;31.55;102839.59;5045909;28;20044;-69
2022/03/01 06:19:10;;;;;;;6.43;4.53;;;;;;;21.67;31.94;102846.19;5049291;28;20064;-69
2022/03/01 06:21:35;;;;;;;4.93;3.97;;;;;;;21.54;32.30;102848.31;5046787;28;20131;-69
2022/03/01 06:24:02;;;;;;;7.00;4.95;;;;;;;21.39;32.42;102848.75;5052764;28;20048;-69
2022/03/01 06:26:28;;;;;;;6.07;4.72;;;;;;;21.29;32.46;102853.22;5050162;28;20074;-69
2022/03/01 06:28:54;;;;;;;5.38;4.40;;;;;;;21.35;32.66;102855.31;5055392;28;20151;-69
2022/03/01 06:31:19;;;;;;;7.15;4.95;;;;;;;21.60;32.12;102850.41;5046287;28;20048;-69
2022/03/01 06:33:45;;;;;;;5.20;4.30;;;;;;;22.06;31.28;102862.00;5046498;28;20036;-69
2022/03/01 06:36:11;;;;;;;6.10;4.25;;;;;;;22.21;31.00;102839.31;5050324;28;20117;-69
2022/03/01 06:38:36;;;;;;;5.90;4.88;;;;;;;22.36;30.73;102867.06;5045596;28;20119;-69
2022/03/01 06:41:03;;;;;;;5.88;4.38;;;;;;;22.30;30.89;102872.97;5053653;28;20036;-69
2022/03/01 06:43:29;;;;;;;6.28;4.40;;;;;;;22.18;31.00;102877.63;5054626;28;20043;-69
2022/03/01 06:45:54;;;;;;;6.43;4.88;;;;;;;22.03;31.34;102877.22;5053405;28;20956;-69
2022/03/01 06:48:20;;;;;;;6.28;4.45;;;;;;;21.83;31.65;102878.25;5056865;28;20398;-69
2022/03/01 06:50:46;;;;;;;6.68;4.80;;;;;;;21.73;32.23;102882.75;5053018;28;20418;-69
2022/03/01 06:53:14;;;;;;;6.35;4.55;;;;;;;21.60;31.97;102884.88;5051549;28;20048;-69
2022/03/01 06:55:43;;;;;;;6.72;4.40;;;;;;;21.51;32.09;102878.59;5053165;28;20544;-69
2022/03/01 06:58:10;;;;;;;7.00;5.10;;;;;;;21.35;32.56;102880.97;5054900;28;20364;-69
2022/03/01 07:00:35;;;;;;;5.82;4.63;;;;;;;21.23;32.73;102884.72;5049012;28;20098;-70
2022/03/01 07:03:01;;;;;;;5.80;4.55;;;;;;;21.10;32.92;102885.00;5051700;28;20036;-69
2022/03/01 07:05:26;;;;;;;5.55;4.55;;;;;;;21.02;32.94;102883.03;5054282;28;20670;-69
2022/03/01 07:07:52;;;;;;;6.00;4.57;;;;;;;21.02;33.07;102885.69;5058013;28;20415;-69
2022/03/01 07:10:18;;;;;;;6.45;4.75;;;;;;;21.07;32.86;102879.97;5050714;28;20040;-69
2022/03/01 07:12:44;;;;;;;6.47;4.78;;;;;;;21.28;32.51;102872.75;5056469;28;20521;-68
2022/03/01 07:15:11;;;;;;;6.35;4.60;;;;;;;21.66;32.01;102889.59;5056333;28;20171;-68
2022/03/01 07:17:37;;;;;;;6.07;4.78;;;;;;;21.61;31.91;102883.88;5056693;28;20051;-68
2022/03/01 07:20:04;;;;;;;5.68;4.70;;;;;;;21.54;32.31;102888.91;5058980;28;20515;-67
2022/03/01 07:22:30;;;;;;;7.05;4.75;;;;;;;21.52;32.15;102890.84;5052580;28;20376;-69
2022/03/01 07:24:55;;;;;;;6.05;4.90;;;;;;;21.34;32.39;102880.13;5057342;28;20062;-68
2022/03/01 07:27:21;;;;;;;6.50;4.90;;;;;;;21.17;32.62;102880.78;5055197;28;20025;-68
2022/03/01 07:29:47;;;;;;;6.32;4.80;;;;;;;21.05;32.88;102881.94;5056413;28;20044;-70
2022/03/01 07:32:13;;;;;;;6.28;4.57;;;;;;;21.01;33.09;102897.25;5055328;28;20098;-70
2022/03/01 07:34:38;;;;;;;6.10;4.15;;;;;;;20.95;33.11;102895.16;5059888;28;20526;-70
2022/03/01 07:37:06;;;;;;;6.78;5.03;;;;;;;20.90;33.29;102897.38;5056432;28;20049;-71
2022/03/01 07:39:32;;;;;;;5.10;4.10;;;;;;;20.80;33.36;102902.63;5058840;28;20036;-68
2022/03/01 07:41:57;;;;;;;5.88;4.35;;;;;;;20.77;33.48;102900.28;5058381;28;20040;-68
2022/03/01 07:44:23;;;;;;;6.78;4.97;;;;;;;20.77;33.34;102900.28;5059270;28;20051;-70
2022/03/01 07:46:48;;;;;;;7.07;4.78;;;;;;;20.86;33.21;102901.28;5060150;28;20038;-70
2022/03/01 07:49:14;;;;;;;6.63;4.70;;;;;;;21.16;32.61;102900.31;5059936;28;20036;-70
2022/03/01 07:51:40;;;;;;;6.63;4.95;;;;;;;21.42;32.15;102900.66;5057735;28;20040;-71
2022/03/01 07:54:06;;;;;;;6.53;4.88;;;;;;;21.62;31.98;102897.00;5053408;28;20032;-70
2022/03/01 07:56:31;;;;;;;5.43;4.53;;;;;;;21.57;32.11;102904.56;5053669;28;20028;-70
2022/03/01 07:58:57;;;;;;;6.45;4.55;;;;;;;21.57;32.04;102899.25;5054556;28;20047;-68
2022/03/01 08:01:22;;;;;;;7.53;4.93;;;;;;;21.43;32.30;102891.72;5058914;28;20041;-67
2022/03/01 08:03:49;;;;;;;5.95;4.35;;;;;;;21.36;32.30;102906.50;5056019;28;20033;-67
2022/03/01 08:06:16;;;;;;;5.90;4.72;;;;;;;21.19;32.64;102907.19;5057680;28;20040;-67
2022/03/01 08:08:42;;;;;;;7.50;4.85;;;;;;;21.04;32.76;102904.09;5054161;28;21304;-68
2022/03/01 08:11:08;;;;;;;5.63;4.75;;;;;;;21.15;32.77;102914.53;5059921;28;20135;-69
2022/03/01 08:13:34;;;;;;;5.32;4.32;;;;;;;21.41;32.33;102917.53;5055629;28;20474;-68
2022/03/01 08:16:00;;;;;;;6.50;4.75;;;;;;;21.60;32.00;102917.53;5057375;28;20099;-67
2022/03/01 08:18:26;;;;;;;7.35;5.20;;;;;;;21.73;31.68;102914.59;5059474;28;20056;-68
2022/03/01 08:20:52;;;;;;;6.60;4.70;;;;;;;21.70;31.71;102909.53;5054940;28;20036;-67
2022/03/01 08:23:18;;;;;;;6.07;4.95;;;;;;;22.14;31.45;102908.09;5050829;28;21715;-71
2022/03/01 08:25:44;;;;;;;8.27;4.72;;;;;;;22.73;30.68;102913.94;5021363;28;20040;-66
2022/03/01 08:28:12;;;;;;;6.78;4.55;;;;;;;22.96;30.43;102912.56;5057714;28;20166;-68
2022/03/01 08:30:37;;;;;;;7.13;4.43;;;;;;;22.99;30.42;102920.25;5054207;28;20036;-68
2022/03/01 08:33:03;;;;;;;6.68;4.85;;;;;;;22.98;30.92;102921.25;5055363;28;20044;-68
2022/03/01 08:35:32;;;;;;;6.32;4.88;;;;;;;22.74;31.05;102902.34;5051010;28;20076;-69
2022/03/01 08:38:02;;;;;;;5.70;4.55;;;;;;;22.75;31.16;102928.75;5055788;28;20584;-68
2022/03/01 08:40:33;;;;;;;5.78;4.20;;;;;;;22.59;31.73;102924.06;5014931;28;20724;-66
2022/03/01 08:42:59;;;;;;;7.07;5.07;;;;;;;22.52;31.76;102922.19;5053748;28;21824;-67
2022/03/01 08:45:24;;;;;;;6.05;4.65;;;;;;;22.42;31.83;102921.38;5057989;28;20033;-67
2022/03/01 08:47:51;;;;;;;6.80;4.85;;;;;;;22.39;31.90;102921.66;5023638;28;20028;-66
2022/03/01 08:50:16;;;;;;;5.80;4.68;;;;;;;22.35;32.37;102920.28;5053948;28;20040;-68
2022/03/01 08:52:42;;;;;;;5.57;4.53;;;;;;;22.33;32.13;102915.13;5021036;28;20071;-73
2022/03/01 08:55:08;;;;;;;5.38;4.55;;;;;;;22.23;32.43;102917.81;5053654;28;20044;-69
2022/03/01 08:57:35;;;;;;;5.97;4.35;;;;;;;21.96;32.83;102921.22;5013200;28;20494;-68
2022/03/01 09:00:01;;;;;;;6.90;4.65;;;;;;;21.80;33.07;102912.19;5053771;28;20028;-67
2022/03/01 09:02:27;;;;;;;8.02;4.85;;;;;;;21.90;32.53;102897.94;5019261;28;20041;-71
2022/03/01 09:04:52;;;;;;;5.88;4.65;;;;;;;22.08;32.58;102918.41;5057833;28;20032;-69
2022/03/01 09:07:18;;;;;;;6.38;4.38;;;;;;;22.12;32.54;102928.63;5012226;28;20075;-70
2022/03/01 09:09:43;;;;;;;7.68;4.78;;;;;;;22.15;32.49;102927.50;5049251;28;20208;-67
2022/03/01 09:12:09;;;;;;;6.47;4.60;;;;;;;22.11;33.02;102923.47;5015602;28;20490;-70
2022/03/01 09:14:34;;;;;;;7.57;4.90;;;;;;;22.16;32.90;102926.50;5036011;28;20051;-67
2022/03/01 09:17:00;;;;;;;7.55;4.63;;;;;;;22.13;32.91;102930.28;5047780;28;20056;-70
2022/03/01 09:19:25;;;;;;;6.47;5.10;;;;;;;22.15;32.73;102940.75;5017857;28;20079;-72
2022/03/01 09:21:51;;;;;;;5.47;4.57;;;;;;;21.99;33.22;102936.84;5050569;28;20121;-69
2022/03/01 09:24:17;;;;;;;6.55;4.78;;;;;;;21.88;33.19;102931.69;5018587;28;20134;-69
2022/03/01 09:26:42;;;;;;;6.93;5.28;;;;;;;21.92;32.94;102934.94;5053521;28;20036;-70
2022/03/01 09:29:08;;;;;;;5.50;4.60;;;;;;;21.93;33.08;102936.59;5018117;28;20680;-70
2022/03/01 09:31:33;;;;;;;5.65;4.78;;;;;;;21.92;33.14;102937.59;5037772;28;20075;-67
2022/03/01 09:33:59;;;;;;;6.30;4.68;;;;;;;21.94;32.82;102933.81;5049636;28;20036;-68
2022/03/01 09:36:25;;;;;;;7.32;5.05;;;;;;;21.92;33.16;102929.63;5016346;28;20037;-66
2022/03/01 09:38:51;;;;;;;6.15;4.85;;;;;;;21.86;33.24;102920.41;5048803;28;20135;-66
2022/03/01 09:41:16;;;;;;;7.05;4.88;;;;;;;21.94;32.98;102919.69;5012509;28;20152;-64
2022/03/01 09:43:42;;;;;;;6.30;4.78;;;;;;;21.87;33.57;102922.06;5050813;28;20048;-68
2022/03/01 09:46:09;;;;;;;6.63;5.20;;;;;;;21.97;33.11;102922.06;5003239;28;20710;-72
2022/03/01 09:48:38;;;;;;;6.53;5.10;;;;;;;22.00;33.38;102917.31;5050999;28;20158;-73
2022/03/01 09:51:06;;;;;;;5.68;4.55;;;;;;;22.04;33.44;102923.16;5014966;28;20142;-72
2022/03/01 09:53:32;;;;;;;6.43;4.60;;;;;;;22.02;33.12;102904.72;5049195;28;20029;-71
2022/03/01 09:56:00;;;;;;;7.40;4.75;;;;;;;22.00;33.11;102909.34;4999325;28;20745;-68
2022/03/01 09:58:25;;;;;;;7.78;5.03;;;;;;;21.99;33.19;102910.31;5054417;28;20032;-69
2022/03/01 10:00:52;;;;;;;6.45;5.05;;;;;;;22.06;33.24;102918.56;5014246;28;21805;-72
2022/03/01 10:03:22;;;;;;;6.80;4.97;;;;;;;22.03;33.30;102917.00;5039091;28;20583;-67
2022/03/01 10:05:47;;;;;;;6.50;4.70;;;;;;;21.94;33.13;102911.75;5058035;28;20043;-66
2022/03/01 10:08:22;;;;;;;6.25;4.57;;;;;;;21.84;33.63;102918.88;5015751;28;20033;-74
2022/03/01 10:10:51;;;;;;;6.28;4.65;;;;;;;21.97;33.28;102919.41;5046374;28;20043;-69
2022/03/01 10:13:29;;;;;;;6.43;4.60;;;;;;;22.01;33.03;102923.44;5016810;28;20036;-67
2022/03/01 10:16:09;;;;;;;6.53;4.40;;;;;;;21.94;33.50;102920.53;5048083;28;20510;-72
2022/03/01 10:18:40;;;;;;;5.18;4.32;;;;;;;20.98;34.83;102918.69;5017950;28;21025;-72
2022/03/01 10:21:09;;;;;;;6.60;4.63;;;;;;;20.67;35.55;102935.66;5035275;28;20261;-76
2022/03/01 10:23:35;;;;;;;8.65;4.72;;;;;;;20.59;35.82;102936.31;5051095;28;20024;-74
2022/03/01 10:26:21;;;;;;;6.38;4.38;;;;;;;20.53;36.22;102947.44;5004612;28;20109;-72
2022/03/01 10:28:48;;;;;;;5.18;4.68;;;;;;;20.49;36.22;102938.94;5048261;28;20100;-73
2022/03/01 10:31:35;;;;;;;6.35;4.70;;;;;;;20.52;36.45;102949.25;5015744;28;20111;-73
2022/03/01 10:34:04;;;;;;;7.63;4.57;;;;;;;20.51;36.27;102950.22;5051668;28;20024;-72
2022/03/01 10:36:48;;;;;;;7.00;4.27;;;;;;;20.50;36.01;102940.59;5001892;28;20376;-75
2022/03/01 10:39:27;;;;;;;7.07;4.55;;;;;;;20.51;36.25;102944.94;5049151;28;20044;-72
2022/03/01 10:41:54;;;;;;;6.63;4.50;;;;;;;20.49;36.20;102957.47;5010015;28;20036;-72
2022/03/01 10:44:25;;;;;;;6.72;4.65;;;;;;;20.54;35.92;102956.22;5046828;28;20041;-71
2022/03/01 10:46:55;;;;;;;5.72;4.63;;;;;;;20.47;36.06;102938.22;5012288;28;20055;-72
2022/03/01 10:49:25;;;;;;;5.90;4.55;;;;;;;20.52;36.17;102943.94;5052891;28;20041;-72
2022/03/01 10:51:54;;;;;;;5.70;4.45;;;;;;;20.60;36.29;102948.56;5011025;28;20885;-69
2022/03/01 10:54:29;;;;;;;5.07;4.13;;;;;;;20.60;36.09;102959.16;5049802;28;20054;-71
2022/03/01 10:56:56;;;;;;;5.68;4.45;;;;;;;20.62;36.17;102956.38;5016111;28;20398;-69
2022/03/01 10:59:26;;;;;;;6.30;4.72;;;;;;;20.45;35.41;102920.78;5051990;28;20033;-71
2022/03/01 11:01:52;;;;;;;6.63;4.50;;;;;;;20.67;35.86;102938.28;5017455;28;20804;-71
2022/03/01 11:04:21;;;;;;;5.78;4.68;;;;;;;20.68;36.15;102946.09;5056233;28;20056;-74
2022/03/01 11:06:48;;;;;;;6.68;4.47;;;;;;;20.58;36.19;102952.31;5014955;28;20025;-71
2022/03/01 11:09:14;;;;;;;6.43;4.60;;;;;;;20.51;36.57;102946.72;5054681;28;20048;-73
2022/03/01 11:11:41;;;;;;;6.38;4.68;;;;;;;20.45;36.83;102949.88;5017560;28;20040;-72
2022/03/01 11:14:08;;;;;;;7.00;4.60;;;;;;;20.42;36.65;102950.16;5059851;28;20142;-72
2022/03/01 11:17:11;;;;;;;6.15;4.80;;;;;;;20.38;36.42;102943.44;5039454;28;20326;-72
2022/03/01 11:19:46;;;;;;;5.70;4.38;;;;;;;20.36;36.30;102950.66;5076017;28;20043;-72
2022/03/01 11:22:38;;;;;;;6.30;4.35;;;;;;;20.31;36.49;102944.94;5037852;28;20636;-72
2022/03/01 11:25:04;;;;;;;5.60;4.50;;;;;;;20.29;36.36;102944.22;5076658;28;20047;-73
2022/03/01 11:27:30;;;;;;;6.97;4.88;;;;;;;20.26;36.25;102942.66;5039798;28;20048;-73